createdAt,value
2022-12-07T00:01:24.195Z,66.38
2022-12-07T00:03:53.909Z,64.50
2022-12-07T00:06:21.517Z,63.30
2022-12-07T00:08:49.196Z,67.15
2022-12-07T00:11:18.938Z,58.15
2022-12-07T00:13:46.591Z,60.38
2022-12-07T00:16:18.411Z,61.55
2022-12-07T00:18:46.284Z,55.90
2022-12-07T00:21:19.307Z,60.90
2022-12-07T00:23:48.456Z,64.97
2022-12-07T00:26:24.604Z,60.60
2022-12-07T00:28:54.340Z,63.05
2022-12-07T00:31:23.488Z,64.18
2022-12-07T00:33:50.592Z,60.88
2022-12-07T00:36:26.037Z,62.80
2022-12-07T00:38:55.447Z,60.33
2022-12-07T00:41:24.597Z,56.22
2022-12-07T00:43:52.235Z,58.95
2022-12-07T00:46:20.578Z,63.00
2022-12-07T00:48:48.541Z,59.15
2022-12-07T00:51:17.261Z,63.28
2022-12-07T00:53:44.279Z,63.17
2022-12-07T00:56:20.462Z,59.78
2022-12-07T00:58:59.089Z,60.25
2022-12-07T01:01:28.393Z,61.05
2022-12-07T01:03:55.180Z,58.33
2022-12-07T01:06:23.791Z,57.95
2022-12-07T01:08:51.002Z,59.90
2022-12-07T01:11:21.197Z,54.08
2022-12-07T01:13:50.255Z,58.55
2022-12-07T01:16:18.200Z,57.53
2022-12-07T01:18:48.566Z,54.70
2022-12-07T01:21:18.136Z,59.72
2022-12-07T01:23:45.297Z,62.78
2022-12-07T01:26:14.835Z,57.10
2022-12-07T01:28:42.230Z,63.35
2022-12-07T01:31:17.738Z,61.75
2022-12-07T01:33:49.844Z,57.85
2022-12-07T01:36:28.068Z,63.60
2022-12-07T01:39:00.588Z,65.00
2022-12-07T01:41:31.028Z,57.13
2022-12-07T01:44:11.960Z,58.63
2022-12-07T01:46:39.314Z,65.88
2022-12-07T01:49:09.600Z,55.88
2022-12-07T01:51:38.642Z,58.22
2022-12-07T01:54:05.444Z,59.67
2022-12-07T01:56:33.346Z,58.75
2022-12-07T01:59:01.681Z,61.83
2022-12-07T02:01:29.076Z,60.17
2022-12-07T02:03:56.259Z,56.05
2022-12-07T02:06:25.842Z,58.20
2022-12-07T02:08:53.315Z,63.47
2022-12-07T02:11:21.295Z,56.15
2022-12-07T02:13:48.717Z,63.67
2022-12-07T02:16:30.579Z,62.42
2022-12-07T02:19:26.697Z,60.92
2022-12-07T02:22:04.103Z,68.00
2022-12-07T02:24:58.596Z,64.90
2022-12-07T02:27:43.375Z,69.43
2022-12-07T02:30:13.410Z,60.00
2022-12-07T02:33:04.175Z,61.22
2022-12-07T02:35:41.179Z,65.40
2022-12-07T02:38:20.073Z,64.97
2022-12-07T02:41:01.591Z,64.07
2022-12-07T02:43:56.470Z,62.97
2022-12-07T02:46:30.991Z,61.17
2022-12-07T02:49:00.574Z,70.30
2022-12-07T02:51:31.683Z,63.45
2022-12-07T02:53:58.838Z,71.97
2022-12-07T02:56:47.080Z,62.53
2022-12-07T02:59:32.708Z,63.85
2022-12-07T03:02:08.481Z,65.55
2022-12-07T03:04:55.763Z,67.63
2022-12-07T03:08:06.457Z,65.60
2022-12-07T03:10:49.266Z,61.10
2022-12-07T03:13:31.648Z,64.30
2022-12-07T03:16:16.984Z,61.47
2022-12-07T03:18:50.220Z,62.72
2022-12-07T03:21:21.184Z,61.92
2022-12-07T03:23:52.427Z,62.03
2022-12-07T03:26:22.314Z,59.97
2022-12-07T03:28:55.426Z,61.30
2022-12-07T03:31:39.229Z,68.60
2022-12-07T03:34:34.959Z,66.85
2022-12-07T03:37:07.016Z,61.90
2022-12-07T03:39:47.241Z,60.67
2022-12-07T03:42:14.116Z,64.43
2022-12-07T03:44:42.134Z,63.92
2022-12-07T03:47:30.674Z,63.58
2022-12-07T03:50:22.729Z,62.97
2022-12-07T03:53:14.869Z,66.55
2022-12-07T03:55:45.429Z,60.97
2022-12-07T03:58:19.245Z,62.85
2022-12-07T04:00:46.547Z,72.70
2022-12-07T04:03:13.304Z,62.75
2022-12-07T04:05:40.632Z,68.95
2022-12-07T04:08:07.474Z,64.72
2022-12-07T04:10:34.239Z,61.10
2022-12-07T04:13:01.035Z,69.85
2022-12-07T04:15:28.083Z,63.30
2022-12-07T04:17:55.793Z,67.30
2022-12-07T04:20:22.804Z,65.30
2022-12-07T04:22:49.837Z,69.70
2022-12-07T04:25:16.680Z,64.53
2022-12-07T04:27:43.479Z,70.68
2022-12-07T04:30:10.752Z,75.30
2022-12-07T04:32:37.914Z,72.78
2022-12-07T04:35:05.638Z,73.43
2022-12-07T04:37:32.550Z,71.03
2022-12-07T04:39:59.567Z,73.90
2022-12-07T04:42:26.498Z,75.97
2022-12-07T04:44:53.300Z,72.82
2022-12-07T04:47:20.249Z,71.13
2022-12-07T04:49:47.007Z,73.18
2022-12-07T04:52:13.856Z,73.68
2022-12-07T04:54:40.628Z,73.85
2022-12-07T04:57:07.411Z,74.25
2022-12-07T04:59:34.136Z,73.78
2022-12-07T05:02:00.971Z,71.10
2022-12-07T05:04:27.839Z,75.82
2022-12-07T05:06:54.577Z,76.82
2022-12-07T05:09:21.400Z,73.32
2022-12-07T05:11:48.127Z,75.00
2022-12-07T05:14:20.680Z,73.30
2022-12-07T05:16:50.548Z,69.00
2022-12-07T05:19:18.681Z,65.20
2022-12-07T05:21:45.942Z,65.43
2022-12-07T05:24:14.603Z,69.82
2022-12-07T05:26:41.417Z,69.70
2022-12-07T05:29:08.728Z,74.63
2022-12-07T05:31:35.629Z,70.88
2022-12-07T05:34:02.960Z,69.15
2022-12-07T05:36:32.065Z,66.53
2022-12-07T05:38:59.372Z,63.53
2022-12-07T05:41:44.596Z,61.78
2022-12-07T05:44:11.354Z,73.82
2022-12-07T05:46:38.118Z,64.70
2022-12-07T05:49:04.885Z,65.55
2022-12-07T05:51:31.857Z,63.97
2022-12-07T05:53:58.657Z,69.80
2022-12-07T05:56:27.571Z,69.63
2022-12-07T05:59:13.264Z,68.95
2022-12-07T06:01:43.300Z,66.45
2022-12-07T06:04:10.031Z,59.85
2022-12-07T06:06:37.005Z,63.60
2022-12-07T06:09:05.527Z,66.35
2022-12-07T06:11:50.839Z,65.00
2022-12-07T06:14:17.562Z,64.88
2022-12-07T06:16:44.407Z,67.20
2022-12-07T06:19:11.269Z,69.75
2022-12-07T06:21:39.136Z,66.32
2022-12-07T06:24:06.579Z,67.00
2022-12-07T06:26:33.285Z,64.00
2022-12-07T06:29:00.187Z,62.72
2022-12-07T06:31:27.057Z,69.50
2022-12-07T06:34:08.284Z,63.50
2022-12-07T06:36:35.074Z,67.55
2022-12-07T06:39:02.133Z,73.97
2022-12-07T06:41:29.047Z,73.03
2022-12-07T06:43:56.569Z,74.93
2022-12-07T06:46:23.857Z,70.55
2022-12-07T06:48:50.796Z,69.65
2022-12-07T06:51:17.670Z,66.25
2022-12-07T06:53:44.543Z,68.10
2022-12-07T06:56:11.461Z,60.55
2022-12-07T06:58:38.385Z,61.28
2022-12-07T07:01:13.837Z,64.03
2022-12-07T07:03:40.945Z,66.45
2022-12-07T07:06:08.500Z,59.90
2022-12-07T07:08:36.335Z,58.63
2022-12-07T07:11:03.513Z,50.50
2022-12-07T07:13:30.598Z,51.38
2022-12-07T07:15:58.258Z,42.97
2022-12-07T07:18:25.064Z,40.30
2022-12-07T07:20:52.688Z,47.95
2022-12-07T07:23:20.361Z,48.45
2022-12-07T07:25:47.659Z,35.65
2022-12-07T07:28:15.073Z,50.28
2022-12-07T07:30:42.171Z,45.40
2022-12-07T07:33:09.027Z,35.60
2022-12-07T07:35:36.065Z,40.55
2022-12-07T07:38:04.180Z,47.63
2022-12-07T07:40:36.761Z,40.50
2022-12-07T07:43:03.929Z,45.63
2022-12-07T07:45:30.734Z,48.00
2022-12-07T07:47:57.585Z,51.70
2022-12-07T07:50:24.352Z,53.63
2022-12-07T07:52:52.220Z,53.72
2022-12-07T07:55:19.127Z,49.70
2022-12-07T07:57:51.219Z,53.90
2022-12-07T08:00:18.675Z,54.38
2022-12-07T08:02:46.903Z,58.13
2022-12-07T08:05:14.444Z,55.33
2022-12-07T08:07:41.390Z,59.53
2022-12-07T08:10:11.943Z,65.10
2022-12-07T08:13:00.201Z,74.28
2022-12-07T08:15:29.489Z,60.17
2022-12-07T08:17:56.299Z,64.32
2022-12-07T08:20:23.689Z,60.70
2022-12-07T08:22:51.588Z,61.92
2022-12-07T08:25:19.238Z,56.75
2022-12-07T08:27:46.022Z,59.13
2022-12-07T08:30:12.927Z,56.67
2022-12-07T08:32:42.658Z,50.47
2022-12-07T08:35:09.800Z,55.33
2022-12-07T08:37:37.062Z,56.53
2022-12-07T08:40:06.120Z,63.67
2022-12-07T08:42:38.785Z,57.63
2022-12-07T08:45:08.309Z,52.90
2022-12-07T08:47:38.258Z,51.67
2022-12-07T08:50:08.726Z,52.17
2022-12-07T08:52:38.179Z,54.22
2022-12-07T08:55:07.053Z,52.42
2022-12-07T08:57:36.569Z,48.47
2022-12-07T09:00:05.566Z,49.80
2022-12-07T09:02:33.147Z,55.90
2022-12-07T09:04:59.882Z,49.72
2022-12-07T09:07:27.442Z,53.17
2022-12-07T09:09:54.212Z,59.60
2022-12-07T09:12:20.955Z,53.63
2022-12-07T09:14:47.723Z,46.38
2022-12-07T09:17:14.856Z,49.92
2022-12-07T09:19:43.344Z,50.90
2022-12-07T09:22:10.287Z,49.80
2022-12-07T09:24:36.977Z,47.33
2022-12-07T09:27:03.771Z,42.35
2022-12-07T09:29:30.556Z,48.40
2022-12-07T09:31:57.363Z,43.20
2022-12-07T09:34:24.671Z,46.30
2022-12-07T09:36:51.537Z,45.38
2022-12-07T09:39:18.442Z,40.40
2022-12-07T09:41:46.808Z,39.80
2022-12-07T09:44:19.252Z,35.85
2022-12-07T09:46:46.470Z,28.52
2022-12-07T09:49:18.980Z,32.17
2022-12-07T09:51:45.944Z,38.35
2022-12-07T09:54:17.459Z,33.10
2022-12-07T09:56:45.023Z,26.95
2022-12-07T09:59:18.789Z,35.75
2022-12-07T10:01:48.363Z,32.88
2022-12-07T10:04:17.430Z,32.38
2022-12-07T10:06:44.413Z,32.15
2022-12-07T10:09:13.390Z,28.77
2022-12-07T10:12:01.645Z,29.52
2022-12-07T10:15:05.088Z,35.90
2022-12-07T10:17:32.037Z,28.65
2022-12-07T10:20:24.114Z,32.28
2022-12-07T10:23:19.365Z,24.90
2022-12-07T10:25:46.822Z,32.22
2022-12-07T10:28:17.874Z,25.60
2022-12-07T10:31:16.053Z,26.52
2022-12-07T10:33:54.805Z,24.63
2022-12-07T10:36:33.827Z,22.88
2022-12-07T10:39:11.396Z,24.30
2022-12-07T10:41:57.931Z,22.73
2022-12-07T10:44:30.244Z,30.95
2022-12-07T10:47:02.915Z,26.67
2022-12-07T10:49:48.377Z,26.17
2022-12-07T10:52:19.899Z,27.58
2022-12-07T10:55:11.216Z,28.05
2022-12-07T10:58:01.878Z,26.10
2022-12-07T11:00:38.421Z,23.65
2022-12-07T11:03:20.134Z,27.58
2022-12-07T11:06:04.461Z,23.58
2022-12-07T11:09:04.214Z,22.02
2022-12-07T11:11:34.317Z,22.85
2022-12-07T11:14:10.388Z,20.33
2022-12-07T11:17:00.874Z,23.77
2022-12-07T11:19:42.105Z,19.40
2022-12-07T11:22:28.803Z,21.23
2022-12-07T11:25:03.645Z,21.15
2022-12-07T11:27:36.344Z,15.10
2022-12-07T11:30:09.101Z,17.40
2022-12-07T11:33:02.584Z,16.70
2022-12-07T11:35:45.202Z,18.52
2022-12-07T11:38:31.476Z,15.02
2022-12-07T11:41:14.039Z,18.25
2022-12-07T11:43:52.231Z,19.23
2022-12-07T11:46:19.468Z,17.52
2022-12-07T11:48:53.043Z,15.52
2022-12-07T11:51:22.166Z,18.75
2022-12-07T11:54:01.504Z,22.75
2022-12-07T11:56:30.402Z,20.42
2022-12-07T11:59:37.116Z,14.68
2022-12-07T12:02:15.321Z,18.83
2022-12-07T12:04:55.411Z,12.55
2022-12-07T12:10:24.999Z,18.13
2022-12-07T12:16:27.809Z,11.63
2022-12-07T12:19:06.504Z,19.77
2022-12-07T12:21:34.418Z,16.40
2022-12-07T12:24:29.628Z,18.15
2022-12-07T12:27:16.616Z,20.48
2022-12-07T12:29:44.907Z,19.80
2022-12-07T12:32:19.538Z,18.67
2022-12-07T12:34:50.959Z,14.80
2022-12-07T12:37:42.199Z,18.02
2022-12-07T12:40:18.124Z,16.77
2022-12-07T12:42:49.757Z,27.67
2022-12-07T12:45:23.827Z,19.48
2022-12-07T12:48:03.997Z,22.95
2022-12-07T12:50:38.791Z,17.98
2022-12-07T12:53:26.644Z,16.17
2022-12-07T12:56:30.649Z,27.02
2022-12-07T12:59:26.167Z,20.90
2022-12-07T13:02:06.385Z,25.25
2022-12-07T13:04:48.635Z,23.23
2022-12-07T13:08:01.520Z,23.77
2022-12-07T13:10:31.097Z,16.60
2022-12-07T13:13:14.373Z,21.98
2022-12-07T13:15:52.361Z,24.35
2022-12-07T13:18:34.161Z,20.90
2022-12-07T13:21:01.686Z,24.45
2022-12-07T13:23:46.701Z,22.48
2022-12-07T13:26:31.854Z,19.05
2022-12-07T13:29:10.674Z,18.45
2022-12-07T13:31:39.513Z,23.70
2022-12-07T13:34:34.203Z,23.40
2022-12-07T13:37:15.487Z,24.75
2022-12-07T13:40:26.603Z,22.95
2022-12-07T13:43:05.227Z,21.08
2022-12-07T13:45:49.570Z,23.17
2022-12-07T13:48:35.592Z,20.65
2022-12-07T13:51:04.764Z,18.10
2022-12-07T13:53:31.818Z,20.10
2022-12-07T13:56:02.657Z,21.58
2022-12-07T13:58:32.953Z,21.50
2022-12-07T14:01:00.707Z,18.85
2022-12-07T14:03:34.821Z,21.25
2022-12-07T14:06:28.912Z,12.45
2022-12-07T14:09:10.047Z,8.40
2022-12-07T14:11:38.357Z,13.82
2022-12-07T14:14:06.505Z,9.27
2022-12-07T14:16:36.836Z,13.23
2022-12-07T14:19:06.163Z,16.33
2022-12-07T14:21:35.305Z,14.13
2022-12-07T14:24:10.962Z,13.45
2022-12-07T14:26:40.667Z,12.48
2022-12-07T14:29:39.911Z,9.38
2022-12-07T14:32:29.210Z,9.50
2022-12-07T14:34:57.343Z,7.97
2022-12-07T14:37:24.917Z,9.85
2022-12-07T14:39:51.756Z,9.10
2022-12-07T14:42:18.910Z,11.60
2022-12-07T14:44:45.680Z,8.50
2022-12-07T14:50:03.206Z,18.05
2022-12-07T14:55:24.088Z,14.85
2022-12-07T14:57:50.915Z,12.30
2022-12-07T15:00:19.136Z,14.07
2022-12-07T15:02:47.225Z,18.33
2022-12-07T15:05:16.245Z,16.88
2022-12-07T15:07:44.208Z,16.52
2022-12-07T15:10:31.047Z,22.38
2022-12-07T15:13:21.679Z,20.50
2022-12-07T15:15:50.114Z,18.00
2022-12-07T15:18:18.274Z,21.65
2022-12-07T15:20:45.738Z,23.15
2022-12-07T15:23:13.013Z,26.75
2022-12-07T15:25:47.852Z,29.55
2022-12-07T15:28:15.481Z,22.98
2022-12-07T15:30:44.456Z,21.15
2022-12-07T15:33:13.128Z,24.48
2022-12-07T15:35:45.072Z,25.42
2022-12-07T15:39:05.104Z,33.25
2022-12-07T15:41:19.873Z,32.35
2022-12-07T15:44:05.789Z,19.02
2022-12-07T15:46:38.396Z,28.60
2022-12-07T15:49:07.667Z,23.67
2022-12-07T15:51:34.537Z,28.40
2022-12-07T15:54:03.036Z,23.50
2022-12-07T15:56:29.773Z,24.40
2022-12-07T15:58:57.938Z,22.23
2022-12-07T16:01:24.931Z,27.13
2022-12-07T16:03:51.724Z,23.77
2022-12-07T16:06:19.376Z,29.40
2022-12-07T16:08:47.673Z,22.50
2022-12-07T16:11:15.013Z,25.48
2022-12-07T16:13:41.800Z,26.52
2022-12-07T16:16:14.045Z,30.45
2022-12-07T16:18:41.004Z,21.63
2022-12-07T16:21:08.143Z,29.13
2022-12-07T16:23:35.537Z,21.50
2022-12-07T16:26:22.141Z,25.67
2022-12-07T16:28:54.134Z,25.75
2022-12-07T16:31:23.349Z,25.93
2022-12-07T16:33:51.126Z,27.20
2022-12-07T16:36:39.956Z,21.88
2022-12-07T16:39:06.811Z,31.15
2022-12-07T16:41:34.030Z,31.75
2022-12-07T16:44:06.398Z,31.98
2022-12-07T16:46:37.148Z,29.98
2022-12-07T16:49:04.815Z,29.65
2022-12-07T16:51:32.343Z,23.88
2022-12-07T16:53:59.721Z,31.30
2022-12-07T16:56:27.634Z,27.98
2022-12-07T16:58:55.628Z,22.50
2022-12-07T17:01:23.757Z,22.40
2022-12-07T17:03:51.148Z,29.63
2022-12-07T17:06:20.266Z,21.80
2022-12-07T17:08:49.870Z,24.50
2022-12-07T17:11:28.378Z,24.92
2022-12-07T17:14:30.716Z,25.33
2022-12-07T17:16:57.490Z,21.17
2022-12-07T17:19:24.373Z,27.02
2022-12-07T17:21:51.627Z,20.73
2022-12-07T17:24:18.488Z,22.73
2022-12-07T17:26:46.415Z,23.60
2022-12-07T17:29:15.711Z,23.48
2022-12-07T17:31:47.735Z,28.48
2022-12-07T17:34:17.690Z,28.17
2022-12-07T17:36:45.932Z,31.80
2022-12-07T17:39:16.108Z,23.48
2022-12-07T17:42:02.033Z,33.40
2022-12-07T17:44:29.331Z,29.63
2022-12-07T17:46:58.831Z,26.48
2022-12-07T17:49:27.185Z,29.50
2022-12-07T17:52:12.554Z,27.02
2022-12-07T17:54:39.398Z,31.08
2022-12-07T17:57:06.139Z,26.17
2022-12-07T17:59:32.863Z,32.58
2022-12-07T18:01:59.718Z,28.35
2022-12-07T18:04:29.215Z,24.98
2022-12-07T18:06:56.016Z,23.95
2022-12-07T18:09:23.521Z,25.52
2022-12-07T18:11:50.555Z,29.25
2022-12-07T18:14:17.426Z,27.02
2022-12-07T18:16:45.036Z,24.65
2022-12-07T18:19:14.537Z,26.20
2022-12-07T18:21:41.708Z,24.45
2022-12-07T18:24:11.879Z,24.30
2022-12-07T18:26:39.291Z,22.38
2022-12-07T18:29:07.355Z,26.52
2022-12-07T18:31:35.193Z,24.90
2022-12-07T18:34:04.775Z,26.75
2022-12-07T18:36:32.035Z,22.35
2022-12-07T18:38:59.060Z,20.85
2022-12-07T18:41:25.917Z,23.10
2022-12-07T18:43:52.742Z,23.70
2022-12-07T18:46:21.505Z,25.90
2022-12-07T18:48:52.062Z,22.35
2022-12-07T18:51:20.576Z,24.83
2022-12-07T18:53:47.530Z,20.27
2022-12-07T18:56:15.894Z,27.30
2022-12-07T18:59:03.042Z,22.30
2022-12-07T19:01:31.129Z,24.88
2022-12-07T19:03:59.112Z,28.95
2022-12-07T19:06:26.760Z,23.27
2022-12-07T19:08:54.825Z,19.00
2022-12-07T19:11:42.361Z,24.17
2022-12-07T19:14:09.329Z,22.23
2022-12-07T19:16:36.915Z,25.98
2022-12-07T19:19:04.777Z,24.88
2022-12-07T19:21:31.773Z,23.48
2022-12-07T19:23:58.514Z,24.98
2022-12-07T19:26:25.567Z,22.15
2022-12-07T19:28:52.403Z,24.25
2022-12-07T19:31:19.190Z,31.45
2022-12-07T19:33:46.441Z,24.73
2022-12-07T19:36:13.243Z,22.83
2022-12-07T19:38:40.082Z,22.98
2022-12-07T19:41:32.739Z,24.30
2022-12-07T19:44:04.559Z,27.85
2022-12-07T19:46:32.116Z,25.27
2022-12-07T19:49:00.752Z,23.50
2022-12-07T19:51:28.973Z,21.02
2022-12-07T19:53:58.067Z,28.98
2022-12-07T19:56:25.934Z,20.05
2022-12-07T19:58:53.077Z,22.00
2022-12-07T20:01:20.363Z,24.83
2022-12-07T20:03:47.380Z,21.23
2022-12-07T20:06:17.936Z,20.85
2022-12-07T20:08:46.168Z,25.95
2022-12-07T20:11:32.777Z,22.95
2022-12-07T20:14:00.010Z,23.80
2022-12-07T20:16:27.038Z,26.42
2022-12-07T20:18:57.832Z,24.95
2022-12-07T20:21:25.454Z,19.70
2022-12-07T20:23:52.753Z,24.60
2022-12-07T20:26:20.375Z,26.58
2022-12-07T20:28:47.352Z,23.63
2022-12-07T20:31:16.294Z,25.63
2022-12-07T20:33:46.913Z,28.75
2022-12-07T20:36:16.375Z,32.33
2022-12-07T20:38:44.684Z,24.77
2022-12-07T20:41:33.082Z,26.52
2022-12-07T20:44:00.968Z,26.45
2022-12-07T20:46:28.309Z,27.23
2022-12-07T20:48:57.996Z,27.65
2022-12-07T20:51:24.810Z,21.58
2022-12-07T20:53:51.637Z,24.52
2022-12-07T20:56:20.816Z,29.17
2022-12-07T20:58:47.592Z,26.30
2022-12-07T21:01:14.684Z,26.70
2022-12-07T21:03:41.877Z,22.77
2022-12-07T21:06:12.504Z,24.35
2022-12-07T21:08:39.659Z,22.13
2022-12-07T21:11:09.586Z,23.85
2022-12-07T21:13:36.396Z,26.67
2022-12-07T21:16:11.518Z,27.23
2022-12-07T21:18:38.684Z,24.70
2022-12-07T21:21:07.339Z,24.50
2022-12-07T21:23:34.748Z,29.65
2022-12-07T21:26:01.719Z,28.10
2022-12-07T21:28:28.491Z,22.88
2022-12-07T21:31:13.989Z,27.60
2022-12-07T21:33:44.006Z,28.08
2022-12-07T21:36:16.392Z,22.50
2022-12-07T21:38:43.268Z,22.83
2022-12-07T21:41:20.099Z,23.67
2022-12-07T21:43:47.865Z,33.95
2022-12-07T21:46:16.728Z,22.08
2022-12-07T21:48:43.683Z,26.38
2022-12-07T21:51:13.079Z,21.75
2022-12-07T21:53:41.596Z,24.77
2022-12-07T21:56:17.276Z,24.00
2022-12-07T21:58:44.466Z,23.38
2022-12-07T22:01:24.490Z,27.02
2022-12-07T22:03:52.189Z,23.23
2022-12-07T22:06:22.045Z,22.95
2022-12-07T22:08:49.340Z,24.55
2022-12-07T22:11:16.831Z,25.88
2022-12-07T22:14:09.636Z,23.73
2022-12-07T22:16:37.382Z,24.05
2022-12-07T22:19:04.398Z,25.95
2022-12-07T22:21:32.071Z,20.48
2022-12-07T22:23:58.805Z,28.60
2022-12-07T22:26:26.419Z,22.95
2022-12-07T22:28:53.575Z,22.02
2022-12-07T22:31:21.232Z,27.38
2022-12-07T22:33:48.570Z,24.27
2022-12-07T22:36:15.636Z,26.85
2022-12-07T22:38:43.187Z,20.27
2022-12-07T22:41:12.645Z,22.83
2022-12-07T22:43:39.955Z,26.38
2022-12-07T22:46:07.304Z,22.17
2022-12-07T22:48:34.335Z,21.23
2022-12-07T22:51:01.559Z,28.08
2022-12-07T22:53:28.772Z,24.05
2022-12-07T22:55:55.648Z,24.55
2022-12-07T22:58:22.951Z,23.50
2022-12-07T23:00:49.893Z,25.83
2022-12-07T23:03:16.931Z,23.35
2022-12-07T23:05:46.050Z,23.20
2022-12-07T23:08:13.081Z,22.17
2022-12-07T23:10:44.508Z,22.05
2022-12-07T23:13:36.754Z,18.52
2022-12-07T23:16:15.314Z,23.02
2022-12-07T23:18:42.916Z,22.98
2022-12-07T23:21:09.838Z,20.50
2022-12-07T23:23:37.149Z,20.17
2022-12-07T23:26:09.074Z,21.52
2022-12-07T23:28:36.670Z,27.13
2022-12-07T23:31:12.600Z,24.27
2022-12-07T23:33:40.166Z,24.08
2022-12-07T23:36:12.236Z,24.85
2022-12-07T23:38:40.840Z,26.70
2022-12-07T23:41:10.337Z,21.48
2022-12-07T23:43:38.618Z,21.55
2022-12-07T23:46:14.327Z,27.13
2022-12-07T23:48:41.217Z,19.40
2022-12-07T23:51:09.604Z,32.80
2022-12-07T23:53:38.574Z,27.30
2022-12-07T23:56:06.297Z,20.30
2022-12-07T23:58:33.572Z,26.40
